Big Delta, AK

3:51 PM AKDT on June 03, 2015 (GMT -0800)
AK_Meso | | Change Station
CLOSE
Current Station
Personal Weather Station
Location: Delta Junction, AK
Elevation: 1388 ft
Nearby Weather Stations

Elev 1388 ft 63.89 °N, 145.85 °W | Updated 2 hours ago

Mostly Cloudy
Mostly Cloudy
58.0 °F
Feels Like 58.0 °F
N
13.0
Wind Variable Wind from South
Gusts 22.0 mph

Today
High -- | Low -- °F
--% Chance of Precip.
Yesterday
High -- | Low -- °F
Precip. -- in
3:38 AM 11:46 PM
Full, 98% visible
Pressure 29.52 in
Visibility 10.0 miles
Clouds Scattered Clouds 4500 ft
Scattered Clouds 6000 ft
Mostly Cloudy 10000 ft
Mostly Cloudy 20000 ft
Dew Point 38.0 °F
Humidity 46%
Rainfall in
Snow Depth Not available.
UV 4 out of 12
Pollen Not available.
Air Quality Not available.
Flu Activity Sporadic
METAR PABI 032253Z 18021G38KT 10SM SCT045 SCT060 BKN100 BKN200 14/02 A2950 RMK PK WND 19040/2226 RAB25E51 SLP994 SHRA DSNT W-NE ACSL DSNT S P0000 T01440017 VIA AUTODIAL

More Conditions Fewer Conditions

Pressure 29.52 in
Visibility 10.0 miles
Clouds Scattered Clouds 4500 ft
Scattered Clouds 6000 ft
Mostly Cloudy 10000 ft
Mostly Cloudy 20000 ft
Dew Point 38.0 °F
Humidity 46%
Rainfall in
Snow Depth Not available.
UV 4 out of 12
Pollen Not available.
Air Quality Not available.
Flu Activity Sporadic
METAR PABI 032253Z 18021G38KT 10SM SCT045 SCT060 BKN100 BKN200 14/02 A2950 RMK PK WND 19040/2226 RAB25E51 SLP994 SHRA DSNT W-NE ACSL DSNT S P0000 T01440017 VIA AUTODIAL

More Conditions Fewer Conditions

10-Day Weather Forecast

×

Almanac

Astronomy

Jun. 03, 2015 Rise Set
Actual Time
Civil Twilight
Nautical Twilight
Astronomical Twilight
Moon
Length of Visible Light
Length of Day
Tomorrow will be .
, % of the Moon is Illuminated

Today's Extremes

State Highs State Lows

Community

WunderPhotos

Upload Photos

1,826,304 photos uploaded!

WunderBlogs® & News

Nearby

Air Quality

  Air Quality AQ Index Pollutant
Not available.

Snow Depth

Station Depth Elevation

Earthquake Activity

City Distance Mag. Time & Date
Minimum magnitude displayed is 2.5.

Coastal Water Temperatures

Place Temperature

Stations

Nearby Weather Stations

Station Location Temp. Windchill Dew Point Humidity Wind Precip. Elev Updated Type